sensor_id;sensor_type;location;lat;lon;timestamp;P1;durP1;ratioP1;P2;durP2;ratioP2
32521;SDS011;18963;51.504;5.316;2023-08-06T00:02:13;6.35;;;2.33;;
32521;SDS011;18963;51.504;5.316;2023-08-06T00:04:38;4.93;;;2.40;;
32521;SDS011;18963;51.504;5.316;2023-08-06T00:07:04;5.68;;;2.63;;
32521;SDS011;18963;51.504;5.316;2023-08-06T00:09:30;4.63;;;2.38;;
32521;SDS011;18963;51.504;5.316;2023-08-06T00:11:55;6.50;;;2.17;;
32521;SDS011;18963;51.504;5.316;2023-08-06T00:14:21;5.03;;;2.10;;
32521;SDS011;18963;51.504;5.316;2023-08-06T00:16:46;4.85;;;2.40;;
32521;SDS011;18963;51.504;5.316;2023-08-06T00:19:12;5.43;;;2.05;;
32521;SDS011;18963;51.504;5.316;2023-08-06T00:21:37;5.53;;;2.28;;
32521;SDS011;18963;51.504;5.316;2023-08-06T00:24:03;4.93;;;2.38;;
32521;SDS011;18963;51.504;5.316;2023-08-06T00:26:28;5.63;;;2.22;;
32521;SDS011;18963;51.504;5.316;2023-08-06T00:28:54;4.50;;;2.20;;
32521;SDS011;18963;51.504;5.316;2023-08-06T00:31:19;5.25;;;2.42;;
32521;SDS011;18963;51.504;5.316;2023-08-06T00:33:45;5.95;;;2.10;;
32521;SDS011;18963;51.504;5.316;2023-08-06T00:36:10;4.38;;;2.10;;
32521;SDS011;18963;51.504;5.316;2023-08-06T00:38:36;5.00;;;2.35;;
32521;SDS011;18963;51.504;5.316;2023-08-06T00:41:02;6.68;;;2.42;;
32521;SDS011;18963;51.504;5.316;2023-08-06T00:43:27;6.75;;;2.42;;
32521;SDS011;18963;51.504;5.316;2023-08-06T00:45:53;6.03;;;2.08;;
32521;SDS011;18963;51.504;5.316;2023-08-06T00:48:18;6.90;;;2.30;;
32521;SDS011;18963;51.504;5.316;2023-08-06T00:50:45;6.55;;;2.22;;
32521;SDS011;18963;51.504;5.316;2023-08-06T00:53:11;5.30;;;2.25;;
32521;SDS011;18963;51.504;5.316;2023-08-06T00:55:37;5.43;;;2.60;;
32521;SDS011;18963;51.504;5.316;2023-08-06T00:58:03;4.35;;;1.98;;
32521;SDS011;18963;51.504;5.316;2023-08-06T01:00:29;4.60;;;2.25;;
32521;SDS011;18963;51.504;5.316;2023-08-06T01:02:55;6.50;;;2.50;;
32521;SDS011;18963;51.504;5.316;2023-08-06T01:05:21;5.43;;;2.17;;
32521;SDS011;18963;51.504;5.316;2023-08-06T01:07:59;5.50;;;2.20;;
32521;SDS011;18963;51.504;5.316;2023-08-06T01:16:02;5.35;;;2.13;;
32521;SDS011;18963;51.504;5.316;2023-08-06T01:18:30;4.68;;;2.10;;
32521;SDS011;18963;51.504;5.316;2023-08-06T01:20:56;8.93;;;2.53;;
32521;SDS011;18963;51.504;5.316;2023-08-06T01:23:22;4.40;;;2.10;;
32521;SDS011;18963;51.504;5.316;2023-08-06T01:25:55;5.43;;;2.40;;
32521;SDS011;18963;51.504;5.316;2023-08-06T01:28:23;5.20;;;2.42;;
32521;SDS011;18963;51.504;5.316;2023-08-06T01:30:59;5.38;;;2.05;;
32521;SDS011;18963;51.504;5.316;2023-08-06T01:33:27;5.72;;;2.22;;
32521;SDS011;18963;51.504;5.316;2023-08-06T01:35:55;4.78;;;2.38;;
32521;SDS011;18963;51.504;5.316;2023-08-06T01:38:22;5.38;;;2.55;;
32521;SDS011;18963;51.504;5.316;2023-08-06T01:40:49;5.00;;;2.42;;
32521;SDS011;18963;51.504;5.316;2023-08-06T01:43:15;5.20;;;2.10;;
32521;SDS011;18963;51.504;5.316;2023-08-06T01:45:40;4.35;;;1.77;;
32521;SDS011;18963;51.504;5.316;2023-08-06T01:48:06;4.78;;;1.60;;
32521;SDS011;18963;51.504;5.316;2023-08-06T01:50:31;4.80;;;2.05;;
32521;SDS011;18963;51.504;5.316;2023-08-06T01:52:57;5.82;;;2.08;;
32521;SDS011;18963;51.504;5.316;2023-08-06T01:55:22;4.80;;;2.10;;
32521;SDS011;18963;51.504;5.316;2023-08-06T01:57:48;5.25;;;2.10;;
32521;SDS011;18963;51.504;5.316;2023-08-06T02:00:13;3.83;;;1.70;;
32521;SDS011;18963;51.504;5.316;2023-08-06T02:02:39;7.80;;;2.20;;
32521;SDS011;18963;51.504;5.316;2023-08-06T02:05:06;5.32;;;2.13;;
32521;SDS011;18963;51.504;5.316;2023-08-06T02:07:31;4.55;;;2.13;;
32521;SDS011;18963;51.504;5.316;2023-08-06T02:09:57;4.50;;;1.80;;
32521;SDS011;18963;51.504;5.316;2023-08-06T02:12:23;4.95;;;2.20;;
32521;SDS011;18963;51.504;5.316;2023-08-06T02:14:48;4.13;;;1.80;;
32521;SDS011;18963;51.504;5.316;2023-08-06T02:17:13;6.35;;;2.30;;
32521;SDS011;18963;51.504;5.316;2023-08-06T02:19:39;5.07;;;2.13;;
32521;SDS011;18963;51.504;5.316;2023-08-06T02:22:05;5.93;;;2.20;;
32521;SDS011;18963;51.504;5.316;2023-08-06T02:24:30;4.32;;;2.15;;
32521;SDS011;18963;51.504;5.316;2023-08-06T02:26:56;5.13;;;2.28;;
32521;SDS011;18963;51.504;5.316;2023-08-06T02:29:21;4.90;;;2.20;;
32521;SDS011;18963;51.504;5.316;2023-08-06T02:31:47;4.63;;;2.00;;
32521;SDS011;18963;51.504;5.316;2023-08-06T02:34:12;4.80;;;2.30;;
32521;SDS011;18963;51.504;5.316;2023-08-06T02:36:38;5.32;;;2.60;;
32521;SDS011;18963;51.504;5.316;2023-08-06T02:39:03;6.18;;;2.55;;
32521;SDS011;18963;51.504;5.316;2023-08-06T02:41:29;6.10;;;2.00;;
32521;SDS011;18963;51.504;5.316;2023-08-06T02:43:54;4.97;;;2.13;;
32521;SDS011;18963;51.504;5.316;2023-08-06T02:46:20;4.63;;;1.83;;
32521;SDS011;18963;51.504;5.316;2023-08-06T02:48:45;5.25;;;2.00;;
32521;SDS011;18963;51.504;5.316;2023-08-06T02:51:11;4.30;;;1.90;;
32521;SDS011;18963;51.504;5.316;2023-08-06T02:53:36;4.93;;;2.22;;
32521;SDS011;18963;51.504;5.316;2023-08-06T02:56:02;5.57;;;2.58;;
32521;SDS011;18963;51.504;5.316;2023-08-06T02:58:27;5.78;;;2.40;;
32521;SDS011;18963;51.504;5.316;2023-08-06T03:01:02;6.45;;;2.38;;
32521;SDS011;18963;51.504;5.316;2023-08-06T03:03:33;5.75;;;2.30;;
32521;SDS011;18963;51.504;5.316;2023-08-06T03:05:59;4.13;;;1.80;;
32521;SDS011;18963;51.504;5.316;2023-08-06T03:08:25;6.13;;;2.70;;
32521;SDS011;18963;51.504;5.316;2023-08-06T03:10:51;5.10;;;2.38;;
32521;SDS011;18963;51.504;5.316;2023-08-06T03:13:17;4.93;;;2.03;;
32521;SDS011;18963;51.504;5.316;2023-08-06T03:15:43;5.20;;;2.38;;
32521;SDS011;18963;51.504;5.316;2023-08-06T03:18:16;4.95;;;2.30;;
32521;SDS011;18963;51.504;5.316;2023-08-06T03:20:42;5.68;;;2.55;;
32521;SDS011;18963;51.504;5.316;2023-08-06T03:23:07;5.57;;;2.13;;
32521;SDS011;18963;51.504;5.316;2023-08-06T03:25:35;5.22;;;2.50;;
32521;SDS011;18963;51.504;5.316;2023-08-06T03:28:00;5.28;;;1.88;;
32521;SDS011;18963;51.504;5.316;2023-08-06T03:30:26;4.38;;;1.95;;
32521;SDS011;18963;51.504;5.316;2023-08-06T03:32:51;4.80;;;2.03;;
32521;SDS011;18963;51.504;5.316;2023-08-06T03:35:17;4.38;;;2.03;;
32521;SDS011;18963;51.504;5.316;2023-08-06T03:37:42;5.95;;;2.60;;
32521;SDS011;18963;51.504;5.316;2023-08-06T03:40:08;4.82;;;2.22;;
32521;SDS011;18963;51.504;5.316;2023-08-06T03:42:34;5.03;;;2.70;;
32521;SDS011;18963;51.504;5.316;2023-08-06T03:45:00;6.57;;;2.30;;
32521;SDS011;18963;51.504;5.316;2023-08-06T03:47:25;5.32;;;2.10;;
32521;SDS011;18963;51.504;5.316;2023-08-06T03:49:51;4.15;;;1.88;;
32521;SDS011;18963;51.504;5.316;2023-08-06T03:52:16;4.60;;;2.30;;
32521;SDS011;18963;51.504;5.316;2023-08-06T03:54:42;5.97;;;2.50;;
32521;SDS011;18963;51.504;5.316;2023-08-06T03:57:08;5.88;;;2.58;;
32521;SDS011;18963;51.504;5.316;2023-08-06T03:59:34;7.10;;;2.67;;
32521;SDS011;18963;51.504;5.316;2023-08-06T04:01:59;5.30;;;2.10;;
32521;SDS011;18963;51.504;5.316;2023-08-06T04:04:25;4.45;;;2.20;;
32521;SDS011;18963;51.504;5.316;2023-08-06T04:06:50;7.32;;;2.50;;
32521;SDS011;18963;51.504;5.316;2023-08-06T04:09:16;6.13;;;2.60;;
32521;SDS011;18963;51.504;5.316;2023-08-06T04:11:41;6.57;;;2.53;;
32521;SDS011;18963;51.504;5.316;2023-08-06T04:14:07;7.95;;;2.30;;
32521;SDS011;18963;51.504;5.316;2023-08-06T04:16:32;4.88;;;2.08;;
32521;SDS011;18963;51.504;5.316;2023-08-06T04:18:58;6.55;;;2.40;;
32521;SDS011;18963;51.504;5.316;2023-08-06T04:21:23;5.68;;;2.72;;
32521;SDS011;18963;51.504;5.316;2023-08-06T04:23:49;6.70;;;2.63;;
32521;SDS011;18963;51.504;5.316;2023-08-06T04:26:15;7.32;;;2.78;;
32521;SDS011;18963;51.504;5.316;2023-08-06T04:28:40;4.78;;;2.00;;
32521;SDS011;18963;51.504;5.316;2023-08-06T04:31:06;6.13;;;2.88;;
32521;SDS011;18963;51.504;5.316;2023-08-06T04:33:31;6.35;;;2.30;;
32521;SDS011;18963;51.504;5.316;2023-08-06T04:35:57;7.53;;;2.72;;
32521;SDS011;18963;51.504;5.316;2023-08-06T04:38:23;5.05;;;2.30;;
32521;SDS011;18963;51.504;5.316;2023-08-06T04:40:50;6.28;;;2.50;;
32521;SDS011;18963;51.504;5.316;2023-08-06T04:43:15;5.60;;;2.20;;
32521;SDS011;18963;51.504;5.316;2023-08-06T04:45:53;5.20;;;2.70;;
32521;SDS011;18963;51.504;5.316;2023-08-06T04:48:19;5.57;;;2.78;;
32521;SDS011;18963;51.504;5.316;2023-08-06T04:50:45;5.53;;;2.75;;
32521;SDS011;18963;51.504;5.316;2023-08-06T04:53:12;4.75;;;2.30;;
32521;SDS011;18963;51.504;5.316;2023-08-06T04:55:37;6.82;;;2.88;;
32521;SDS011;18963;51.504;5.316;2023-08-06T04:58:03;5.78;;;2.95;;
32521;SDS011;18963;51.504;5.316;2023-08-06T05:00:29;7.25;;;3.13;;
32521;SDS011;18963;51.504;5.316;2023-08-06T05:02:54;6.70;;;2.97;;
32521;SDS011;18963;51.504;5.316;2023-08-06T05:05:20;8.35;;;2.67;;
32521;SDS011;18963;51.504;5.316;2023-08-06T05:07:48;5.22;;;2.58;;
32521;SDS011;18963;51.504;5.316;2023-08-06T05:10:14;6.43;;;3.00;;
32521;SDS011;18963;51.504;5.316;2023-08-06T05:12:40;6.20;;;3.13;;
32521;SDS011;18963;51.504;5.316;2023-08-06T05:15:05;6.78;;;3.15;;
32521;SDS011;18963;51.504;5.316;2023-08-06T05:17:32;6.75;;;3.40;;
32521;SDS011;18963;51.504;5.316;2023-08-06T05:19:57;9.07;;;3.40;;
32521;SDS011;18963;51.504;5.316;2023-08-06T05:22:23;6.18;;;2.92;;
32521;SDS011;18963;51.504;5.316;2023-08-06T05:24:48;6.68;;;3.17;;
32521;SDS011;18963;51.504;5.316;2023-08-06T05:27:14;8.40;;;3.63;;
32521;SDS011;18963;51.504;5.316;2023-08-06T05:29:39;6.95;;;3.28;;
32521;SDS011;18963;51.504;5.316;2023-08-06T05:32:05;8.02;;;3.08;;
32521;SDS011;18963;51.504;5.316;2023-08-06T05:34:31;8.60;;;3.63;;
32521;SDS011;18963;51.504;5.316;2023-08-06T05:36:56;8.55;;;2.80;;
32521;SDS011;18963;51.504;5.316;2023-08-06T05:39:22;6.40;;;3.28;;
32521;SDS011;18963;51.504;5.316;2023-08-06T05:41:47;7.35;;;3.63;;
32521;SDS011;18963;51.504;5.316;2023-08-06T05:44:13;8.70;;;3.72;;
32521;SDS011;18963;51.504;5.316;2023-08-06T05:46:38;7.25;;;3.28;;
32521;SDS011;18963;51.504;5.316;2023-08-06T05:49:04;5.95;;;2.90;;
32521;SDS011;18963;51.504;5.316;2023-08-06T05:51:30;5.65;;;2.88;;
32521;SDS011;18963;51.504;5.316;2023-08-06T05:53:55;5.78;;;2.80;;
32521;SDS011;18963;51.504;5.316;2023-08-06T05:56:21;6.38;;;3.00;;
32521;SDS011;18963;51.504;5.316;2023-08-06T05:58:46;7.05;;;2.67;;
32521;SDS011;18963;51.504;5.316;2023-08-06T06:01:12;6.13;;;2.80;;
32521;SDS011;18963;51.504;5.316;2023-08-06T06:03:38;6.80;;;2.78;;
32521;SDS011;18963;51.504;5.316;2023-08-06T06:06:03;5.07;;;2.33;;
32521;SDS011;18963;51.504;5.316;2023-08-06T06:08:29;6.60;;;2.53;;
32521;SDS011;18963;51.504;5.316;2023-08-06T06:10:55;5.63;;;2.63;;
32521;SDS011;18963;51.504;5.316;2023-08-06T06:13:20;6.88;;;3.00;;
32521;SDS011;18963;51.504;5.316;2023-08-06T06:15:46;5.60;;;2.78;;
32521;SDS011;18963;51.504;5.316;2023-08-06T06:18:12;6.03;;;2.85;;
32521;SDS011;18963;51.504;5.316;2023-08-06T06:20:38;5.50;;;2.90;;
32521;SDS011;18963;51.504;5.316;2023-08-06T06:23:04;5.90;;;2.88;;
32521;SDS011;18963;51.504;5.316;2023-08-06T06:25:29;5.90;;;2.85;;
32521;SDS011;18963;51.504;5.316;2023-08-06T06:27:55;4.00;;;1.85;;
32521;SDS011;18963;51.504;5.316;2023-08-06T06:30:20;3.83;;;1.48;;
32521;SDS011;18963;51.504;5.316;2023-08-06T06:32:46;3.88;;;1.40;;
32521;SDS011;18963;51.504;5.316;2023-08-06T06:35:12;2.95;;;1.10;;
32521;SDS011;18963;51.504;5.316;2023-08-06T06:37:37;3.10;;;1.30;;
32521;SDS011;18963;51.504;5.316;2023-08-06T06:40:03;4.75;;;1.52;;
32521;SDS011;18963;51.504;5.316;2023-08-06T06:42:29;2.63;;;1.35;;
32521;SDS011;18963;51.504;5.316;2023-08-06T06:44:54;3.83;;;2.00;;
32521;SDS011;18963;51.504;5.316;2023-08-06T06:47:20;4.30;;;2.00;;
32521;SDS011;18963;51.504;5.316;2023-08-06T06:49:45;4.60;;;2.40;;
32521;SDS011;18963;51.504;5.316;2023-08-06T06:52:11;5.18;;;2.30;;
32521;SDS011;18963;51.504;5.316;2023-08-06T06:54:37;5.55;;;2.15;;
32521;SDS011;18963;51.504;5.316;2023-08-06T06:57:02;3.75;;;2.00;;
32521;SDS011;18963;51.504;5.316;2023-08-06T06:59:28;7.57;;;2.63;;
32521;SDS011;18963;51.504;5.316;2023-08-06T07:01:53;8.00;;;2.40;;
32521;SDS011;18963;51.504;5.316;2023-08-06T07:04:19;6.35;;;2.17;;
32521;SDS011;18963;51.504;5.316;2023-08-06T07:06:44;5.82;;;2.80;;
32521;SDS011;18963;51.504;5.316;2023-08-06T07:09:10;5.78;;;2.83;;
32521;SDS011;18963;51.504;5.316;2023-08-06T07:11:35;6.53;;;2.90;;
32521;SDS011;18963;51.504;5.316;2023-08-06T07:14:01;7.47;;;3.15;;
32521;SDS011;18963;51.504;5.316;2023-08-06T07:16:26;5.93;;;3.15;;
32521;SDS011;18963;51.504;5.316;2023-08-06T07:18:53;8.00;;;3.08;;
32521;SDS011;18963;51.504;5.316;2023-08-06T07:21:19;8.05;;;3.67;;
32521;SDS011;18963;51.504;5.316;2023-08-06T07:23:45;6.43;;;3.13;;
32521;SDS011;18963;51.504;5.316;2023-08-06T07:26:11;6.43;;;3.10;;
32521;SDS011;18963;51.504;5.316;2023-08-06T07:28:36;7.60;;;3.40;;
32521;SDS011;18963;51.504;5.316;2023-08-06T07:31:02;9.25;;;4.28;;
32521;SDS011;18963;51.504;5.316;2023-08-06T07:33:28;9.75;;;3.95;;
32521;SDS011;18963;51.504;5.316;2023-08-06T07:35:54;9.23;;;3.60;;
32521;SDS011;18963;51.504;5.316;2023-08-06T07:38:20;9.57;;;4.03;;
32521;SDS011;18963;51.504;5.316;2023-08-06T07:40:46;9.93;;;4.25;;
32521;SDS011;18963;51.504;5.316;2023-08-06T07:43:11;7.57;;;4.28;;
32521;SDS011;18963;51.504;5.316;2023-08-06T07:45:37;8.23;;;3.65;;
32521;SDS011;18963;51.504;5.316;2023-08-06T07:48:03;8.55;;;4.00;;
32521;SDS011;18963;51.504;5.316;2023-08-06T07:50:29;8.88;;;4.13;;
32521;SDS011;18963;51.504;5.316;2023-08-06T07:52:55;8.23;;;4.10;;
32521;SDS011;18963;51.504;5.316;2023-08-06T07:55:20;8.95;;;4.15;;
32521;SDS011;18963;51.504;5.316;2023-08-06T07:57:46;9.02;;;4.03;;
32521;SDS011;18963;51.504;5.316;2023-08-06T08:00:11;10.00;;;3.53;;
32521;SDS011;18963;51.504;5.316;2023-08-06T08:02:37;10.75;;;4.03;;
32521;SDS011;18963;51.504;5.316;2023-08-06T08:05:02;8.38;;;3.53;;
32521;SDS011;18963;51.504;5.316;2023-08-06T08:07:28;7.45;;;3.20;;
32521;SDS011;18963;51.504;5.316;2023-08-06T08:09:55;9.90;;;3.58;;
32521;SDS011;18963;51.504;5.316;2023-08-06T08:12:21;8.55;;;3.20;;
32521;SDS011;18963;51.504;5.316;2023-08-06T08:14:47;8.43;;;3.40;;
32521;SDS011;18963;51.504;5.316;2023-08-06T08:17:12;6.78;;;3.53;;
32521;SDS011;18963;51.504;5.316;2023-08-06T08:19:39;5.97;;;3.08;;
32521;SDS011;18963;51.504;5.316;2023-08-06T08:22:05;6.88;;;2.90;;
32521;SDS011;18963;51.504;5.316;2023-08-06T08:24:31;6.13;;;2.75;;
32521;SDS011;18963;51.504;5.316;2023-08-06T08:26:56;7.95;;;3.13;;
32521;SDS011;18963;51.504;5.316;2023-08-06T08:29:22;7.05;;;2.45;;
32521;SDS011;18963;51.504;5.316;2023-08-06T08:31:48;7.85;;;2.53;;
32521;SDS011;18963;51.504;5.316;2023-08-06T08:34:15;6.90;;;2.95;;
32521;SDS011;18963;51.504;5.316;2023-08-06T08:36:41;9.63;;;2.88;;
32521;SDS011;18963;51.504;5.316;2023-08-06T08:39:07;6.82;;;2.70;;
32521;SDS011;18963;51.504;5.316;2023-08-06T08:41:33;7.57;;;2.95;;
32521;SDS011;18963;51.504;5.316;2023-08-06T08:44:01;10.32;;;2.67;;
32521;SDS011;18963;51.504;5.316;2023-08-06T08:46:29;6.25;;;2.60;;
32521;SDS011;18963;51.504;5.316;2023-08-06T08:48:55;8.23;;;3.35;;
32521;SDS011;18963;51.504;5.316;2023-08-06T08:51:23;8.82;;;2.88;;
32521;SDS011;18963;51.504;5.316;2023-08-06T08:53:50;6.80;;;3.35;;
32521;SDS011;18963;51.504;5.316;2023-08-06T08:56:20;7.40;;;2.60;;
32521;SDS011;18963;51.504;5.316;2023-08-06T08:58:46;8.48;;;3.40;;
32521;SDS011;18963;51.504;5.316;2023-08-06T09:01:11;7.22;;;2.90;;
32521;SDS011;18963;51.504;5.316;2023-08-06T09:03:37;7.07;;;3.30;;
32521;SDS011;18963;51.504;5.316;2023-08-06T09:06:04;6.18;;;2.95;;
32521;SDS011;18963;51.504;5.316;2023-08-06T09:08:33;9.75;;;2.92;;
32521;SDS011;18963;51.504;5.316;2023-08-06T09:11:05;10.60;;;3.25;;
32521;SDS011;18963;51.504;5.316;2023-08-06T09:13:34;7.10;;;2.40;;
32521;SDS011;18963;51.504;5.316;2023-08-06T09:16:01;9.20;;;3.30;;
32521;SDS011;18963;51.504;5.316;2023-08-06T09:18:27;8.13;;;2.88;;
32521;SDS011;18963;51.504;5.316;2023-08-06T09:20:55;9.18;;;2.95;;
32521;SDS011;18963;51.504;5.316;2023-08-06T09:23:25;6.35;;;3.10;;
32521;SDS011;18963;51.504;5.316;2023-08-06T09:25:59;9.57;;;2.92;;
32521;SDS011;18963;51.504;5.316;2023-08-06T09:28:36;7.22;;;2.92;;
32521;SDS011;18963;51.504;5.316;2023-08-06T09:31:08;8.63;;;3.00;;
32521;SDS011;18963;51.504;5.316;2023-08-06T09:33:35;9.77;;;2.65;;
32521;SDS011;18963;51.504;5.316;2023-08-06T09:36:11;9.32;;;3.08;;
32521;SDS011;18963;51.504;5.316;2023-08-06T09:38:37;7.70;;;2.97;;
32521;SDS011;18963;51.504;5.316;2023-08-06T09:41:05;8.20;;;2.80;;
32521;SDS011;18963;51.504;5.316;2023-08-06T09:43:38;9.05;;;2.65;;
32521;SDS011;18963;51.504;5.316;2023-08-06T09:46:10;6.50;;;2.78;;
32521;SDS011;18963;51.504;5.316;2023-08-06T09:48:38;8.13;;;2.92;;
32521;SDS011;18963;51.504;5.316;2023-08-06T09:51:04;8.55;;;2.95;;
32521;SDS011;18963;51.504;5.316;2023-08-06T09:53:32;8.18;;;3.13;;
32521;SDS011;18963;51.504;5.316;2023-08-06T09:55:59;9.23;;;3.20;;
32521;SDS011;18963;51.504;5.316;2023-08-06T09:58:25;8.57;;;3.03;;
32521;SDS011;18963;51.504;5.316;2023-08-06T10:00:51;9.73;;;2.70;;
32521;SDS011;18963;51.504;5.316;2023-08-06T10:03:17;9.38;;;3.08;;
32521;SDS011;18963;51.504;5.316;2023-08-06T10:05:44;7.38;;;2.70;;
32521;SDS011;18963;51.504;5.316;2023-08-06T10:08:10;11.48;;;3.20;;
32521;SDS011;18963;51.504;5.316;2023-08-06T10:10:35;8.32;;;2.53;;
32521;SDS011;18963;51.504;5.316;2023-08-06T10:13:02;7.78;;;2.78;;
32521;SDS011;18963;51.504;5.316;2023-08-06T10:15:31;9.43;;;2.83;;
32521;SDS011;18963;51.504;5.316;2023-08-06T10:17:57;7.03;;;2.53;;
32521;SDS011;18963;51.504;5.316;2023-08-06T10:20:24;9.15;;;2.53;;
32521;SDS011;18963;51.504;5.316;2023-08-06T10:23:03;13.23;;;2.83;;
32521;SDS011;18963;51.504;5.316;2023-08-06T10:25:31;10.27;;;3.30;;
32521;SDS011;18963;51.504;5.316;2023-08-06T10:28:00;10.93;;;3.30;;
32521;SDS011;18963;51.504;5.316;2023-08-06T10:30:33;8.25;;;2.78;;
32521;SDS011;18963;51.504;5.316;2023-08-06T10:32:59;8.32;;;3.20;;
32521;SDS011;18963;51.504;5.316;2023-08-06T10:40:30;8.25;;;2.50;;
32521;SDS011;18963;51.504;5.316;2023-08-06T10:43:00;6.30;;;2.95;;
32521;SDS011;18963;51.504;5.316;2023-08-06T10:45:27;8.50;;;2.67;;
32521;SDS011;18963;51.504;5.316;2023-08-06T10:47:56;6.82;;;2.70;;
32521;SDS011;18963;51.504;5.316;2023-08-06T10:50:23;8.68;;;2.83;;
32521;SDS011;18963;51.504;5.316;2023-08-06T10:52:49;7.78;;;3.15;;
32521;SDS011;18963;51.504;5.316;2023-08-06T10:55:28;9.43;;;3.05;;
32521;SDS011;18963;51.504;5.316;2023-08-06T10:57:54;7.15;;;3.15;;
32521;SDS011;18963;51.504;5.316;2023-08-06T11:00:21;9.93;;;3.67;;
32521;SDS011;18963;51.504;5.316;2023-08-06T11:02:48;8.77;;;3.35;;
32521;SDS011;18963;51.504;5.316;2023-08-06T11:05:14;7.03;;;2.92;;
32521;SDS011;18963;51.504;5.316;2023-08-06T11:07:40;6.20;;;2.85;;
32521;SDS011;18963;51.504;5.316;2023-08-06T11:10:07;8.73;;;2.92;;
32521;SDS011;18963;51.504;5.316;2023-08-06T11:12:33;8.30;;;2.92;;
32521;SDS011;18963;51.504;5.316;2023-08-06T11:15:00;8.27;;;2.50;;
32521;SDS011;18963;51.504;5.316;2023-08-06T11:17:29;6.30;;;2.85;;
32521;SDS011;18963;51.504;5.316;2023-08-06T11:19:56;6.60;;;2.65;;
32521;SDS011;18963;51.504;5.316;2023-08-06T11:22:24;7.20;;;2.58;;
32521;SDS011;18963;51.504;5.316;2023-08-06T11:24:49;8.68;;;3.03;;
32521;SDS011;18963;51.504;5.316;2023-08-06T11:27:16;10.02;;;3.22;;
32521;SDS011;18963;51.504;5.316;2023-08-06T11:29:45;8.20;;;2.75;;
32521;SDS011;18963;51.504;5.316;2023-08-06T11:32:11;6.93;;;2.92;;
32521;SDS011;18963;51.504;5.316;2023-08-06T11:34:37;6.47;;;2.80;;
32521;SDS011;18963;51.504;5.316;2023-08-06T11:37:04;7.22;;;3.05;;
32521;SDS011;18963;51.504;5.316;2023-08-06T11:39:34;9.30;;;3.50;;
32521;SDS011;18963;51.504;5.316;2023-08-06T11:42:02;9.00;;;3.08;;
32521;SDS011;18963;51.504;5.316;2023-08-06T11:44:32;8.98;;;3.20;;
32521;SDS011;18963;51.504;5.316;2023-08-06T11:47:02;10.27;;;3.53;;
32521;SDS011;18963;51.504;5.316;2023-08-06T11:52:16;9.48;;;3.35;;
32521;SDS011;18963;51.504;5.316;2023-08-06T11:54:44;6.22;;;2.30;;
32521;SDS011;18963;51.504;5.316;2023-08-06T11:57:10;6.45;;;2.08;;
32521;SDS011;18963;51.504;5.316;2023-08-06T11:59:37;5.13;;;2.00;;
32521;SDS011;18963;51.504;5.316;2023-08-06T12:02:04;4.97;;;1.88;;
32521;SDS011;18963;51.504;5.316;2023-08-06T12:04:30;4.45;;;1.55;;
32521;SDS011;18963;51.504;5.316;2023-08-06T12:07:04;3.70;;;1.63;;
32521;SDS011;18963;51.504;5.316;2023-08-06T12:11:58;5.90;;;1.50;;
32521;SDS011;18963;51.504;5.316;2023-08-06T12:14:24;5.57;;;1.35;;
32521;SDS011;18963;51.504;5.316;2023-08-06T12:16:49;4.38;;;1.63;;
32521;SDS011;18963;51.504;5.316;2023-08-06T12:19:15;3.47;;;1.30;;
32521;SDS011;18963;51.504;5.316;2023-08-06T12:21:40;12.95;;;1.40;;
32521;SDS011;18963;51.504;5.316;2023-08-06T12:24:06;6.07;;;1.42;;
32521;SDS011;18963;51.504;5.316;2023-08-06T12:26:32;4.85;;;1.45;;
32521;SDS011;18963;51.504;5.316;2023-08-06T12:28:58;4.75;;;1.27;;
32521;SDS011;18963;51.504;5.316;2023-08-06T12:31:23;5.45;;;1.60;;
32521;SDS011;18963;51.504;5.316;2023-08-06T12:33:49;4.50;;;1.33;;
32521;SDS011;18963;51.504;5.316;2023-08-06T12:36:14;6.60;;;1.60;;
32521;SDS011;18963;51.504;5.316;2023-08-06T12:38:40;4.55;;;1.83;;
32521;SDS011;18963;51.504;5.316;2023-08-06T12:41:05;4.10;;;1.40;;
32521;SDS011;18963;51.504;5.316;2023-08-06T12:43:31;3.67;;;1.35;;
32521;SDS011;18963;51.504;5.316;2023-08-06T12:45:56;3.83;;;1.65;;
32521;SDS011;18963;51.504;5.316;2023-08-06T12:48:22;5.07;;;1.42;;
32521;SDS011;18963;51.504;5.316;2023-08-06T12:50:47;4.45;;;1.30;;
32521;SDS011;18963;51.504;5.316;2023-08-06T12:53:14;4.88;;;0.98;;
32521;SDS011;18963;51.504;5.316;2023-08-06T12:55:40;4.60;;;1.20;;
32521;SDS011;18963;51.504;5.316;2023-08-06T12:58:06;3.45;;;1.00;;
32521;SDS011;18963;51.504;5.316;2023-08-06T13:00:32;2.85;;;1.00;;
32521;SDS011;18963;51.504;5.316;2023-08-06T13:02:57;3.38;;;1.33;;
32521;SDS011;18963;51.504;5.316;2023-08-06T13:05:23;7.43;;;1.02;;
32521;SDS011;18963;51.504;5.316;2023-08-06T13:07:48;6.40;;;1.75;;
32521;SDS011;18963;51.504;5.316;2023-08-06T13:10:14;5.85;;;1.05;;
32521;SDS011;18963;51.504;5.316;2023-08-06T13:12:39;2.70;;;0.80;;
32521;SDS011;18963;51.504;5.316;2023-08-06T13:15:05;3.53;;;0.80;;
32521;SDS011;18963;51.504;5.316;2023-08-06T13:17:31;4.28;;;1.10;;
32521;SDS011;18963;51.504;5.316;2023-08-06T13:19:58;2.20;;;0.80;;
32521;SDS011;18963;51.504;5.316;2023-08-06T13:22:23;6.03;;;1.90;;
32521;SDS011;18963;51.504;5.316;2023-08-06T13:24:49;4.43;;;0.90;;
32521;SDS011;18963;51.504;5.316;2023-08-06T13:27:14;2.40;;;0.88;;
32521;SDS011;18963;51.504;5.316;2023-08-06T13:29:40;4.60;;;1.15;;
32521;SDS011;18963;51.504;5.316;2023-08-06T13:32:05;6.07;;;1.20;;
32521;SDS011;18963;51.504;5.316;2023-08-06T13:34:31;6.50;;;1.17;;
32521;SDS011;18963;51.504;5.316;2023-08-06T13:36:56;5.57;;;1.10;;
32521;SDS011;18963;51.504;5.316;2023-08-06T13:39:22;3.80;;;1.23;;
32521;SDS011;18963;51.504;5.316;2023-08-06T13:41:47;2.45;;;0.80;;
32521;SDS011;18963;51.504;5.316;2023-08-06T13:44:13;1.65;;;0.70;;
32521;SDS011;18963;51.504;5.316;2023-08-06T13:46:40;5.82;;;1.33;;
32521;SDS011;18963;51.504;5.316;2023-08-06T13:49:06;4.03;;;1.23;;
32521;SDS011;18963;51.504;5.316;2023-08-06T13:51:31;4.85;;;1.40;;
32521;SDS011;18963;51.504;5.316;2023-08-06T13:53:59;2.10;;;1.00;;
32521;SDS011;18963;51.504;5.316;2023-08-06T13:56:24;2.78;;;1.00;;
32521;SDS011;18963;51.504;5.316;2023-08-06T13:58:50;2.85;;;1.10;;
32521;SDS011;18963;51.504;5.316;2023-08-06T14:01:17;3.25;;;1.08;;
32521;SDS011;18963;51.504;5.316;2023-08-06T14:03:44;2.90;;;0.95;;
32521;SDS011;18963;51.504;5.316;2023-08-06T14:06:09;3.20;;;1.20;;
32521;SDS011;18963;51.504;5.316;2023-08-06T14:08:35;5.13;;;1.33;;
32521;SDS011;18963;51.504;5.316;2023-08-06T14:11:00;6.35;;;1.50;;
32521;SDS011;18963;51.504;5.316;2023-08-06T14:13:26;3.22;;;0.80;;
32521;SDS011;18963;51.504;5.316;2023-08-06T14:15:52;6.30;;;0.98;;
32521;SDS011;18963;51.504;5.316;2023-08-06T14:18:17;2.65;;;0.98;;
32521;SDS011;18963;51.504;5.316;2023-08-06T14:20:43;1.70;;;0.93;;
32521;SDS011;18963;51.504;5.316;2023-08-06T14:23:09;4.25;;;1.30;;
32521;SDS011;18963;51.504;5.316;2023-08-06T14:25:34;3.42;;;1.02;;
32521;SDS011;18963;51.504;5.316;2023-08-06T14:28:00;5.65;;;1.38;;
32521;SDS011;18963;51.504;5.316;2023-08-06T14:30:26;3.83;;;0.98;;
32521;SDS011;18963;51.504;5.316;2023-08-06T14:32:51;2.35;;;0.82;;
32521;SDS011;18963;51.504;5.316;2023-08-06T14:35:17;2.05;;;0.70;;
32521;SDS011;18963;51.504;5.316;2023-08-06T14:37:42;2.45;;;0.60;;
32521;SDS011;18963;51.504;5.316;2023-08-06T14:40:10;2.72;;;0.85;;
32521;SDS011;18963;51.504;5.316;2023-08-06T14:42:36;3.45;;;1.13;;
32521;SDS011;18963;51.504;5.316;2023-08-06T14:45:02;3.60;;;1.10;;
32521;SDS011;18963;51.504;5.316;2023-08-06T14:47:28;4.15;;;1.20;;
32521;SDS011;18963;51.504;5.316;2023-08-06T14:49:54;2.40;;;1.05;;
32521;SDS011;18963;51.504;5.316;2023-08-06T14:52:19;4.50;;;1.20;;
32521;SDS011;18963;51.504;5.316;2023-08-06T14:54:45;5.28;;;0.70;;
32521;SDS011;18963;51.504;5.316;2023-08-06T14:57:10;3.33;;;1.10;;
32521;SDS011;18963;51.504;5.316;2023-08-06T14:59:37;2.92;;;1.23;;